• Join FlightAware (Why Join?)
  • Login
  • US Flag 
07:51AM EST


 

Airport Tracker/Info


-or-


 

Live Flight TrackerFlight Track Log ✈ UAL4457 ✈ 13-Apr-2013 ✈ KLFT - KIAH

Flight Track Log - Related Links

Times and Time Zones

All times are in EDT time to prevent confusion due to time zone crossing. See the UAL4457 flight status page for this flight to view local times or setup timezone preferences in your user account.

Time Position Orientation Groundspeed Altitude Reporting Facility
EDT Latitude Longitude Course Direction KTS MPH feet Rate Location/Type
11:19AM 30.0427 -92.1842 227° Southwest  Level FlightAware Approximate
11:19AM 30.2772 -92.0067 235° Southwest 245 282 5,000  Level Houston Center
11:20AM 30.0005 -92.2560 231° Southwest  Level FlightAware Approximate
11:20AM 30.2281 -92.0719 229° Southwest 265 305 7,600  Level Houston Center
11:21AM 29.9508 -92.3256 231° Southwest  Level FlightAware Approximate
11:21AM 30.1728 -92.1478 230° Southwest 276 318 10,200  Level Houston Center
11:22AM 29.9042 -92.4039 249° West  Level FlightAware Approximate
11:22AM 30.1153 -92.2286 231° Southwest 320 368 11,000  Level Houston Center
11:23AM 29.8510 -92.4779 227° Southwest  Level FlightAware Approximate
11:23AM 30.0492 -92.3169 229° Southwest 357 411 12,400  Level Houston Center
11:24AM 29.8004 -92.5550 235° Southwest  Level FlightAware Approximate
11:24AM 29.9833 -92.4081 230° Southwest 367 422 13,900  Level Houston Center
11:25AM 29.9464 -92.5175 249° West 366 421 15,400 1,839 Climbing Houston Center
11:26AM 29.9078 -92.6467 251° West 357 411 17,700 1,258 Climbing Houston Center
11:27AM 29.8747 -92.7522 250° West 350 403 18,000 145 Climbing Houston Center
11:28AM 29.8408 -92.8608 250° West 358 412 18,000  Level Houston Center
11:29AM 29.8075 -92.9694 251° West 360 414 18,000  Level Houston Center
11:30AM 29.7742 -93.0781 251° West 360 414 18,000  Level Houston Center
11:31AM 29.7400 -93.1886 250° West 364 419 18,000  Level Houston Center
11:32AM 29.7050 -93.2997 250° West 367 422 18,000  Level Houston Center
11:33AM 29.6625 -93.4328 250° West 369 425 18,000  Level Houston Center
11:34AM 29.6278 -93.5456 251° West 372 428 18,000  Level Houston Center
11:35AM 29.5917 -93.6569 250° West 372 428 18,000  Level Houston Center
11:36AM 29.5575 -93.7667 250° West 367 422 18,000 -339 Level Houston Center
11:37AM 29.5225 -93.8736 249° West 359 413 17,300 -1,210 Descending Houston Center
11:38AM 29.5208 -93.9972 269° West 388 447 15,500 -1,909 Descending Houston Center
11:39AM 29.5225 -94.0606 272° West 381 438 14,500 -1,935 Descending Houston Center
11:39AM 29.5253 -94.1406 272° West 375 432 13,500 -978 Descending Houston Center
11:40AM 29.5286 -94.2450 272° West 368 423 13,000 -410 Descending Houston Center
11:41AM 29.5428 -94.3681 278° West 374 430 12,700 -667 Descending Houston Center
11:42AM 29.5842 -94.4661 296° West 377 434 11,700 -1,077 Descending Houston Center
11:43AM 29.6331 -94.5775 297° West 381 438 10,600 -829 Descending Houston Center
11:44AM 29.6792 -94.6872 296° West 381 438 10,000 -545 Descending Houston Center
11:44AM 29.6822 -94.6939 298° West 382 440 9,900 -806 Descending Houston Center
11:45AM 29.7228 -94.7900 296° West 291 335 9,100 -1,403 Descending Houston Center
11:46AM 29.7619 -94.8806 297° West 291 335 7,000 -1,538 Descending Houston Center
11:47AM 29.7906 -94.9500 295° West 291 335 6,100 -968 Descending Houston Center
11:47AM 29.7969 -94.9631 299° West 290 334 6,000 -90 Descending Houston Center
11:48AM 29.8289 -95.0442 294° West 287 330 6,000 -48 Level Houston Center
11:50AM 29.8736 -95.1461 297° West 294 338 5,900  Descending Houston Center
11:51AM 29.8989 -95.2333 289° West 290 334 6,000 54 Climbing Houston Center
11:51AM 29.8997 -95.3100 271° West 283 326 6,000  Level Houston Center
11:52AM 29.8981 -95.4042 269° West 269 310 6,000  Level Houston Center
11:53AM 29.9003 -95.4764 272° West 258 297 6,000 -158 Level Houston Center
11:54AM 29.9006 -95.4928 271° West 260 299 5,800 -984 Descending Houston Center
11:54AM 29.9078 -95.5572 277° West 251 289 5,000 -1,258 Descending Houston Center
11:55AM 29.9269 -95.5731 324° Northwest 259 298 4,500 -885 Descending Houston Center
11:55AM 29.9722 -95.5739 359° North 253 291 4,100 -762 Descending Houston Center
11:56AM 29.9850 -95.5544 53° Northeast 236 272 3,700 -1,065 Descending Houston Center
11:56AM 29.9939 -95.5133 76° East 203 234 3,000 -1,161 Descending Houston Center
11:57AM 29.9931 -95.4897 92° East 218 251 2,500 -1,164 Descending Houston Center
11:58AM 29.9939 -95.4433 89° East 172 198 1,700 -1,065 Descending Houston Center
11:58AM 29.9933 -95.4322 93° East 198 228 1,400 -1,000 Descending Houston Center